createdAt,value
2023-01-23T00:01:31.232Z,19.20
2023-01-23T00:03:58.189Z,16.43
2023-01-23T00:06:25.335Z,16.67
2023-01-23T00:08:52.205Z,21.57
2023-01-23T00:11:23.252Z,16.23
2023-01-23T00:13:50.441Z,16.88
2023-01-23T00:16:21.007Z,18.60
2023-01-23T00:18:48.882Z,17.83
2023-01-23T00:21:19.702Z,18.40
2023-01-23T00:23:50.425Z,20.63
2023-01-23T00:26:21.489Z,18.40
2023-01-23T00:28:48.858Z,18.05
2023-01-23T00:31:26.681Z,20.33
2023-01-23T00:33:57.610Z,20.10
2023-01-23T00:36:27.431Z,20.48
2023-01-23T00:38:54.178Z,17.67
2023-01-23T00:41:20.973Z,20.03
2023-01-23T00:43:48.453Z,21.17
2023-01-23T00:46:15.282Z,20.57
2023-01-23T00:48:42.069Z,19.40
2023-01-23T00:51:08.932Z,20.03
2023-01-23T00:53:35.807Z,19.70
2023-01-23T00:56:02.573Z,18.70
2023-01-23T00:58:29.362Z,21.07
2023-01-23T01:00:56.202Z,20.07
2023-01-23T01:03:25.147Z,18.17
2023-01-23T01:05:52.666Z,18.43
2023-01-23T01:08:19.738Z,20.17
2023-01-23T01:10:46.519Z,19.43
2023-01-23T01:13:13.379Z,23.23
2023-01-23T01:15:40.155Z,21.80
2023-01-23T01:18:07.126Z,23.13
2023-01-23T01:20:33.855Z,19.80
2023-01-23T01:23:00.726Z,19.23
2023-01-23T01:25:27.979Z,17.77
2023-01-23T01:27:56.034Z,22.53
2023-01-23T01:30:23.188Z,18.90
2023-01-23T01:32:50.621Z,21.53
2023-01-23T01:35:17.478Z,19.90
2023-01-23T01:37:44.369Z,19.53
2023-01-23T01:40:22.805Z,19.20
2023-01-23T01:43:01.432Z,19.90
2023-01-23T01:46:08.178Z,19.17
2023-01-23T01:48:55.959Z,18.50
2023-01-23T01:51:31.196Z,17.97
2023-01-23T01:54:47.244Z,18.70
2023-01-23T01:57:24.208Z,16.20
2023-01-23T02:00:00.438Z,20.30
2023-01-23T02:02:35.621Z,16.97
2023-01-23T02:05:11.916Z,16.20
2023-01-23T02:08:09.399Z,18.40
2023-01-23T02:10:37.304Z,20.07
2023-01-23T02:13:33.701Z,17.70
2023-01-23T02:16:05.294Z,17.40
2023-01-23T02:18:35.153Z,15.53
2023-01-23T02:21:07.078Z,16.07
2023-01-23T02:23:56.080Z,18.53
2023-01-23T02:26:32.766Z,19.07
2023-01-23T02:29:00.226Z,23.90
2023-01-23T02:31:27.673Z,18.40
2023-01-23T02:33:58.328Z,16.70
2023-01-23T02:36:30.163Z,16.52
2023-01-23T02:39:10.014Z,17.93
2023-01-23T02:42:04.702Z,14.90
2023-01-23T02:44:32.381Z,14.87
2023-01-23T02:47:05.600Z,18.07
2023-01-23T02:49:32.525Z,16.80
2023-01-23T02:51:59.461Z,15.67
2023-01-23T02:54:26.730Z,19.23
2023-01-23T02:56:53.510Z,13.80
2023-01-23T02:59:38.706Z,16.27
2023-01-23T03:02:06.205Z,16.33
2023-01-23T03:04:33.132Z,18.53
2023-01-23T03:07:00.323Z,14.67
2023-01-23T03:09:27.467Z,17.47
2023-01-23T03:11:54.333Z,14.53
2023-01-23T03:14:23.382Z,14.97
2023-01-23T03:16:51.546Z,14.53
2023-01-23T03:19:23.069Z,15.63
2023-01-23T03:24:17.511Z,16.13
2023-01-23T03:26:47.101Z,14.60
2023-01-23T03:29:40.058Z,16.13
2023-01-23T03:32:08.106Z,15.43
2023-01-23T03:34:35.465Z,16.97
2023-01-23T03:37:03.363Z,14.77
2023-01-23T03:39:49.102Z,14.43
2023-01-23T03:42:15.902Z,13.80
2023-01-23T03:44:42.737Z,13.90
2023-01-23T03:47:10.136Z,14.53
2023-01-23T03:49:37.056Z,12.70
2023-01-23T03:52:04.454Z,16.77
2023-01-23T03:54:31.328Z,14.83
2023-01-23T03:56:58.152Z,13.03
2023-01-23T03:59:25.154Z,13.47
2023-01-23T04:01:51.941Z,14.00
2023-01-23T04:04:18.751Z,12.73
2023-01-23T04:06:45.562Z,14.63
2023-01-23T04:09:12.972Z,10.20
2023-01-23T04:11:39.735Z,12.77
2023-01-23T04:14:06.486Z,13.37
2023-01-23T04:16:33.272Z,12.43
2023-01-23T04:19:00.040Z,12.43
2023-01-23T04:21:26.901Z,11.07
2023-01-23T04:23:53.712Z,10.23
2023-01-23T04:26:20.486Z,11.17
2023-01-23T04:28:47.236Z,12.80
2023-01-23T04:31:14.084Z,47.47
2023-01-23T04:33:40.984Z,51.50
2023-01-23T04:36:08.429Z,13.47
2023-01-23T04:38:35.807Z,10.63
2023-01-23T04:41:03.572Z,11.27
2023-01-23T04:43:30.601Z,9.93
2023-01-23T04:45:57.673Z,9.83
2023-01-23T04:48:25.327Z,10.13
2023-01-23T04:50:52.358Z,11.43
2023-01-23T04:53:19.685Z,10.27
2023-01-23T04:55:49.985Z,26.17
2023-01-23T04:58:18.525Z,10.30
2023-01-23T05:00:46.215Z,11.40
2023-01-23T05:03:13.947Z,9.80
2023-01-23T05:05:42.619Z,9.80
2023-01-23T05:08:10.509Z,8.60
2023-01-23T05:10:37.793Z,11.53
2023-01-23T05:13:04.661Z,10.53
2023-01-23T05:15:31.958Z,18.27
2023-01-23T05:17:58.784Z,10.77
2023-01-23T05:20:25.651Z,11.37
2023-01-23T05:22:52.899Z,11.53
2023-01-23T05:25:28.045Z,9.60
2023-01-23T05:27:55.361Z,8.50
2023-01-23T05:30:23.232Z,9.10
2023-01-23T05:32:50.385Z,9.10
2023-01-23T05:35:17.540Z,9.10
2023-01-23T05:37:48.621Z,8.00
2023-01-23T05:40:15.408Z,8.30
2023-01-23T05:42:42.217Z,7.37
2023-01-23T05:45:09.712Z,8.90
2023-01-23T05:47:37.252Z,9.33
2023-01-23T05:50:05.952Z,7.33
2023-01-23T05:52:32.754Z,6.27
2023-01-23T05:54:59.538Z,6.47
2023-01-23T05:57:26.347Z,6.50
2023-01-23T05:59:53.134Z,6.07
2023-01-23T06:02:19.953Z,7.13
2023-01-23T06:04:50.009Z,4.87
2023-01-23T06:07:18.770Z,4.87
2023-01-23T06:09:47.029Z,5.10
2023-01-23T06:12:14.027Z,6.23
2023-01-23T06:14:41.103Z,5.87
2023-01-23T06:17:07.997Z,6.30
2023-01-23T06:19:34.816Z,6.53
2023-01-23T06:22:01.593Z,5.77
2023-01-23T06:24:28.392Z,6.17
2023-01-23T06:26:55.211Z,5.57
2023-01-23T06:29:22.113Z,6.07
2023-01-23T06:31:49.474Z,6.47
2023-01-23T06:34:16.506Z,4.27
2023-01-23T06:36:43.437Z,5.73
2023-01-23T06:39:13.845Z,5.00
2023-01-23T06:41:41.104Z,5.37
2023-01-23T06:44:07.949Z,5.87
2023-01-23T06:46:35.164Z,4.73
2023-01-23T06:49:04.543Z,5.40
2023-01-23T06:51:33.658Z,5.28
2023-01-23T06:54:00.749Z,5.87
2023-01-23T06:56:27.587Z,6.93
2023-01-23T06:58:54.352Z,6.47
2023-01-23T07:01:21.528Z,8.37
2023-01-23T07:03:48.512Z,6.27
2023-01-23T07:06:16.212Z,5.53
2023-01-23T07:08:44.125Z,6.50
2023-01-23T07:11:11.912Z,7.67
2023-01-23T07:13:38.793Z,6.23
2023-01-23T07:16:05.892Z,5.50
2023-01-23T07:18:33.212Z,6.90
2023-01-23T07:21:00.845Z,7.77
2023-01-23T07:23:27.692Z,6.90
2023-01-23T07:26:03.875Z,7.00
2023-01-23T07:28:31.242Z,6.20
2023-01-23T07:30:59.607Z,8.30
2023-01-23T07:33:26.707Z,7.73
2023-01-23T07:35:53.963Z,9.23
2023-01-23T07:38:23.284Z,6.93
2023-01-23T07:40:50.941Z,8.17
2023-01-23T07:43:18.072Z,7.57
2023-01-23T07:45:45.248Z,7.03
2023-01-23T07:48:12.132Z,6.60
2023-01-23T07:50:39.005Z,7.47
2023-01-23T07:53:06.824Z,7.27
2023-01-23T07:55:34.837Z,7.30
2023-01-23T07:58:01.602Z,6.67
2023-01-23T08:00:30.149Z,6.10
2023-01-23T08:02:57.486Z,6.37
2023-01-23T08:05:25.597Z,7.30
2023-01-23T08:08:07.391Z,6.90
2023-01-23T08:10:39.176Z,7.70
2023-01-23T08:13:06.028Z,6.77
2023-01-23T08:15:32.800Z,6.97
2023-01-23T08:17:59.639Z,7.20
2023-01-23T08:20:26.412Z,7.33
2023-01-23T08:22:53.239Z,8.37
2023-01-23T08:25:19.985Z,7.80
2023-01-23T08:27:46.772Z,7.70
2023-01-23T08:30:13.986Z,7.30
2023-01-23T08:32:40.791Z,7.30
2023-01-23T08:35:08.134Z,9.63
2023-01-23T08:37:34.910Z,11.70
2023-01-23T08:40:01.824Z,9.70
2023-01-23T08:42:28.619Z,10.10
2023-01-23T08:44:55.773Z,15.37
2023-01-23T08:47:22.581Z,8.00
2023-01-23T08:49:49.415Z,8.87
2023-01-23T08:52:16.475Z,8.53
2023-01-23T08:54:43.219Z,8.57
2023-01-23T08:57:10.038Z,9.03
2023-01-23T08:59:36.824Z,8.50
2023-01-23T09:02:03.729Z,11.13
2023-01-23T09:04:30.614Z,9.43
2023-01-23T09:06:57.435Z,10.17
2023-01-23T09:09:24.275Z,10.23
2023-01-23T09:11:51.105Z,8.87
2023-01-23T09:14:17.943Z,10.27
2023-01-23T09:16:44.807Z,8.90
2023-01-23T09:19:12.705Z,10.20
2023-01-23T09:21:39.909Z,10.20
2023-01-23T09:24:06.923Z,9.67
2023-01-23T09:26:33.686Z,12.60
2023-01-23T09:29:00.491Z,12.27
2023-01-23T09:31:27.362Z,12.93
2023-01-23T09:33:54.237Z,9.77
2023-01-23T09:36:33.717Z,11.43
2023-01-23T09:39:07.789Z,10.17
2023-01-23T09:41:34.697Z,12.47
2023-01-23T09:44:20.495Z,11.57
2023-01-23T09:46:54.862Z,12.67
2023-01-23T09:49:28.707Z,11.50
2023-01-23T09:52:19.812Z,12.30
2023-01-23T09:55:03.807Z,12.52
2023-01-23T09:57:54.725Z,13.37
2023-01-23T10:00:30.704Z,10.07
2023-01-23T10:03:00.736Z,11.10
2023-01-23T10:05:42.438Z,9.63
2023-01-23T10:08:46.085Z,12.93
2023-01-23T10:11:29.663Z,12.03
2023-01-23T10:14:17.507Z,11.07
2023-01-23T10:17:05.313Z,9.07
2023-01-23T10:20:18.310Z,11.90
2023-01-23T10:23:00.793Z,10.20
2023-01-23T10:25:33.058Z,9.73
2023-01-23T10:28:29.927Z,8.70
2023-01-23T10:31:02.895Z,7.07
2023-01-23T10:34:14.191Z,8.73
2023-01-23T10:36:58.818Z,9.70
2023-01-23T10:39:32.954Z,8.33
2023-01-23T10:42:02.334Z,9.50
2023-01-23T10:44:29.468Z,10.83
2023-01-23T10:47:00.967Z,8.10
2023-01-23T10:52:44.588Z,8.37
2023-01-23T10:55:20.644Z,10.30
2023-01-23T10:57:53.006Z,10.27
2023-01-23T11:00:37.813Z,8.70
2023-01-23T11:03:22.766Z,8.33
2023-01-23T11:06:17.698Z,10.53
2023-01-23T11:08:57.398Z,14.17
2023-01-23T11:11:27.619Z,21.07
2023-01-23T11:14:14.262Z,58.70
2023-01-23T11:16:41.149Z,15.07
2023-01-23T11:19:07.788Z,14.27
2023-01-23T11:21:57.072Z,12.53
2023-01-23T11:24:40.750Z,10.80
2023-01-23T11:27:20.173Z,11.43
2023-01-23T11:30:16.734Z,12.23
2023-01-23T11:32:59.942Z,10.40
2023-01-23T11:36:07.312Z,13.33
2023-01-23T11:38:52.548Z,13.00
2023-01-23T11:41:29.173Z,13.93
2023-01-23T11:43:56.438Z,23.53
2023-01-23T11:46:41.842Z,13.43
2023-01-23T11:49:51.496Z,12.23
2023-01-23T11:52:38.584Z,10.90
2023-01-23T11:55:36.327Z,13.60
2023-01-23T11:58:50.375Z,11.30
2023-01-23T12:02:03.411Z,14.03
2023-01-23T12:04:50.210Z,9.63
2023-01-23T12:07:23.402Z,12.07
2023-01-23T12:10:17.577Z,13.97
2023-01-23T12:13:21.661Z,16.87
2023-01-23T12:16:27.474Z,14.20
2023-01-23T12:19:21.460Z,12.47
2023-01-23T12:22:03.137Z,16.03
2023-01-23T12:25:01.957Z,11.17
2023-01-23T12:27:45.940Z,14.20
2023-01-23T12:31:05.784Z,19.57
2023-01-23T12:33:47.926Z,12.77
2023-01-23T12:36:59.527Z,17.47
2023-01-23T12:39:51.161Z,13.07
2023-01-23T12:42:25.146Z,18.53
2023-01-23T12:45:11.816Z,14.27
2023-01-23T12:48:03.682Z,21.87
2023-01-23T12:50:46.739Z,16.37
2023-01-23T12:53:21.224Z,17.93
2023-01-23T12:55:56.670Z,15.07
2023-01-23T12:58:28.321Z,16.57
2023-01-23T13:01:26.143Z,13.00
2023-01-23T13:04:31.610Z,12.80
2023-01-23T13:07:12.318Z,13.07
2023-01-23T13:10:02.375Z,13.68
2023-01-23T13:12:30.166Z,11.93
2023-01-23T13:15:38.864Z,13.87
2023-01-23T13:18:21.783Z,11.03
2023-01-23T13:21:18.764Z,12.20
2023-01-23T13:23:45.631Z,13.37
2023-01-23T13:26:15.366Z,12.37
2023-01-23T13:28:53.844Z,13.60
2023-01-23T13:31:46.771Z,11.53
2023-01-23T13:34:17.153Z,11.37
2023-01-23T13:36:44.429Z,11.27
2023-01-23T13:39:17.460Z,11.73
2023-01-23T13:42:14.340Z,11.70
2023-01-23T13:45:21.298Z,11.93
2023-01-23T14:22:59.935Z,13.07
2023-01-23T14:25:27.426Z,13.93
2023-01-23T14:28:06.541Z,14.47
2023-01-23T14:30:33.416Z,15.77
2023-01-23T14:33:00.304Z,14.17
2023-01-23T14:35:33.534Z,13.60
2023-01-23T14:38:05.525Z,13.10
2023-01-23T14:40:46.812Z,13.37
2023-01-23T14:43:26.997Z,13.00
2023-01-23T14:46:16.305Z,14.13
2023-01-23T14:48:50.199Z,12.63
2023-01-23T14:51:25.463Z,18.30
2023-01-23T14:54:02.705Z,16.63
2023-01-23T14:56:36.200Z,14.67
2023-01-23T14:59:08.317Z,14.97
2023-01-23T15:01:36.031Z,12.10
2023-01-23T15:04:20.475Z,13.67
2023-01-23T15:06:53.710Z,15.17
2023-01-23T15:09:32.450Z,14.17
2023-01-23T15:12:16.450Z,16.80
2023-01-23T15:14:43.855Z,13.40
2023-01-23T15:17:20.492Z,14.03
2023-01-23T15:19:56.516Z,17.43
2023-01-23T15:22:29.690Z,17.23
2023-01-23T15:24:57.082Z,15.70
2023-01-23T15:27:35.013Z,16.43
2023-01-23T15:30:35.601Z,14.70
2023-01-23T15:33:08.238Z,14.00
2023-01-23T15:35:38.969Z,15.97
2023-01-23T15:38:08.707Z,16.27
2023-01-23T15:40:38.153Z,13.27
2023-01-23T15:43:18.674Z,16.23
2023-01-23T15:48:13.534Z,12.80
2023-01-23T15:50:40.655Z,17.33
2023-01-23T15:53:14.473Z,15.13
2023-01-23T15:55:41.507Z,15.53
2023-01-23T15:58:14.907Z,14.50
2023-01-23T16:00:42.185Z,16.03
2023-01-23T16:03:09.064Z,14.23
2023-01-23T16:05:37.615Z,16.53
2023-01-23T16:08:06.169Z,15.10
2023-01-23T16:10:39.098Z,14.87
2023-01-23T16:13:07.529Z,15.80
2023-01-23T16:15:35.744Z,15.00
2023-01-23T16:18:06.293Z,15.70
2023-01-23T16:20:41.976Z,18.55
2023-01-23T16:23:24.636Z,14.87
2023-01-23T16:25:52.485Z,16.23
2023-01-23T16:28:23.012Z,14.63
2023-01-23T16:30:51.799Z,14.30
2023-01-23T16:33:19.599Z,16.03
2023-01-23T16:35:47.692Z,18.67
2023-01-23T16:38:28.227Z,15.20
2023-01-23T16:40:59.453Z,15.63
2023-01-23T16:43:26.456Z,16.42
2023-01-23T16:45:56.233Z,16.00
2023-01-23T16:48:27.721Z,14.60
2023-01-23T16:51:01.199Z,16.77
2023-01-23T16:53:36.039Z,16.53
2023-01-23T16:56:04.486Z,15.90
2023-01-23T16:58:50.592Z,16.10
2023-01-23T17:01:23.183Z,19.83
2023-01-23T17:03:59.913Z,16.33
2023-01-23T17:06:26.695Z,15.90
2023-01-23T17:08:53.700Z,21.13
2023-01-23T17:11:28.809Z,15.27
2023-01-23T17:14:04.100Z,12.43
2023-01-23T17:16:31.102Z,13.23
2023-01-23T17:19:01.098Z,14.53
2023-01-23T17:21:33.436Z,15.67
2023-01-23T17:24:00.285Z,16.57
2023-01-23T17:26:27.073Z,13.73
2023-01-23T17:28:53.937Z,14.87
2023-01-23T17:31:24.885Z,15.53
2023-01-23T17:33:52.677Z,13.35
2023-01-23T17:36:19.842Z,14.20
2023-01-23T17:38:46.799Z,15.97
2023-01-23T17:41:17.322Z,15.50
2023-01-23T17:43:44.731Z,16.27
2023-01-23T17:46:22.405Z,12.90
2023-01-23T17:48:49.301Z,16.70
2023-01-23T17:51:19.036Z,16.30
2023-01-23T17:53:46.264Z,14.47
2023-01-23T17:56:13.204Z,20.63
2023-01-23T17:58:40.049Z,17.90
2023-01-23T18:01:24.518Z,14.03
2023-01-23T18:03:53.384Z,16.07
2023-01-23T18:06:20.254Z,16.13
2023-01-23T18:08:47.197Z,15.10
2023-01-23T18:11:23.078Z,16.37
2023-01-23T18:13:55.822Z,16.77
2023-01-23T18:16:27.449Z,15.07
2023-01-23T18:19:01.330Z,32.93
2023-01-23T18:21:28.815Z,15.17
2023-01-23T18:23:56.127Z,14.87
2023-01-23T18:26:55.930Z,16.57
2023-01-23T18:29:44.272Z,16.00
2023-01-23T18:32:55.925Z,13.20
2023-01-23T18:35:52.663Z,15.70
2023-01-23T18:38:42.028Z,18.00
2023-01-23T18:41:23.190Z,16.37
2023-01-23T18:44:07.296Z,15.45
2023-01-23T18:46:34.426Z,10.17
2023-01-23T18:49:01.717Z,15.20
2023-01-23T18:51:37.843Z,17.80
2023-01-23T18:54:43.980Z,17.73
2023-01-23T18:57:32.919Z,18.50
2023-01-23T19:00:34.567Z,17.03
2023-01-23T19:03:17.626Z,16.25
2023-01-23T19:05:45.814Z,26.87
2023-01-23T19:08:28.719Z,18.23
2023-01-23T19:11:01.681Z,15.97
2023-01-23T19:13:43.649Z,17.63
2023-01-23T19:16:33.238Z,15.13
2023-01-23T19:19:16.422Z,17.27
2023-01-23T19:21:46.079Z,14.73
2023-01-23T19:24:19.013Z,14.17
2023-01-23T19:26:46.672Z,15.60
2023-01-23T19:29:21.840Z,18.83
2023-01-23T19:32:03.721Z,21.57
2023-01-23T19:34:31.817Z,15.60
2023-01-23T19:36:58.590Z,18.43
2023-01-23T19:39:25.405Z,13.57
2023-01-23T19:41:53.212Z,14.17
2023-01-23T19:44:24.795Z,17.50
2023-01-23T19:49:19.345Z,15.90
2023-01-23T19:51:47.314Z,16.23
2023-01-23T19:54:15.764Z,14.83
2023-01-23T19:56:42.825Z,14.97
2023-01-23T19:59:10.061Z,26.10
2023-01-23T20:01:49.901Z,19.47
2023-01-23T20:04:20.698Z,15.87
2023-01-23T20:06:52.041Z,17.52
2023-01-23T20:09:19.853Z,17.07
2023-01-23T20:11:47.217Z,18.33
2023-01-23T20:14:14.279Z,15.53
2023-01-23T20:16:43.140Z,20.40
2023-01-23T20:19:15.393Z,16.20
2023-01-23T20:21:42.625Z,16.13
2023-01-23T20:24:09.679Z,18.23
2023-01-23T20:26:37.051Z,17.20
2023-01-23T20:29:05.033Z,16.97
2023-01-23T20:31:32.875Z,19.40
2023-01-23T20:33:59.889Z,16.77
2023-01-23T20:36:26.856Z,19.37
2023-01-23T20:38:54.082Z,16.47
2023-01-23T20:41:22.274Z,16.70
2023-01-23T20:43:49.511Z,17.07
2023-01-23T20:46:16.964Z,18.90
2023-01-23T20:48:45.073Z,16.63
2023-01-23T20:51:14.878Z,16.90
2023-01-23T20:53:42.677Z,16.73
2023-01-23T20:56:19.106Z,17.83
2023-01-23T20:59:07.793Z,19.43
2023-01-23T21:01:56.484Z,15.30
2023-01-23T21:04:30.005Z,16.67
2023-01-23T21:06:57.308Z,16.80
2023-01-23T21:09:24.166Z,16.80
2023-01-23T21:11:52.114Z,17.87
2023-01-23T21:14:20.130Z,17.33
2023-01-23T21:16:47.674Z,18.80
2023-01-23T21:19:15.910Z,17.33
2023-01-23T21:21:43.112Z,21.43
2023-01-23T21:24:10.103Z,20.27
2023-01-23T21:26:37.493Z,20.00
2023-01-23T21:29:05.647Z,17.17
2023-01-23T21:31:35.453Z,18.00
2023-01-23T21:34:05.812Z,18.97
2023-01-23T21:36:32.794Z,19.03
2023-01-23T21:39:00.445Z,18.17
2023-01-23T21:41:27.365Z,18.27
2023-01-23T21:43:54.182Z,18.20
2023-01-23T21:46:21.238Z,20.60
2023-01-23T21:48:48.127Z,34.10
2023-01-23T21:51:21.839Z,15.07
2023-01-23T21:53:50.365Z,21.57
2023-01-23T21:56:20.760Z,25.90
2023-01-23T21:58:48.376Z,19.43
2023-01-23T22:01:36.043Z,20.50
2023-01-23T22:04:13.354Z,24.33
2023-01-23T22:06:43.020Z,19.57
2023-01-23T22:09:14.931Z,17.77
2023-01-23T22:11:41.712Z,19.40
2023-01-23T22:14:08.508Z,21.53
2023-01-23T22:16:47.985Z,20.93
2023-01-23T22:19:18.677Z,21.67
2023-01-23T22:21:46.577Z,20.93
2023-01-23T22:24:14.560Z,21.90
2023-01-23T22:26:41.414Z,18.53
2023-01-23T22:29:08.775Z,20.70
2023-01-23T22:31:35.739Z,22.37
2023-01-23T22:34:02.623Z,22.93
2023-01-23T22:36:29.612Z,21.63
2023-01-23T22:38:56.453Z,23.77
2023-01-23T22:41:24.038Z,22.47
2023-01-23T22:43:59.259Z,18.97
2023-01-23T22:46:26.613Z,20.03
2023-01-23T22:48:53.571Z,21.20
2023-01-23T22:51:25.044Z,24.57
2023-01-23T22:53:56.421Z,21.13
2023-01-23T22:56:25.229Z,22.90
2023-01-23T22:58:54.489Z,19.30
2023-01-23T23:01:27.096Z,23.77
2023-01-23T23:03:58.922Z,19.83
2023-01-23T23:06:26.644Z,22.50
2023-01-23T23:08:53.898Z,22.73
2023-01-23T23:11:23.835Z,24.20
2023-01-23T23:13:51.400Z,22.77
2023-01-23T23:16:22.249Z,21.37
2023-01-23T23:18:52.707Z,20.33
2023-01-23T23:21:25.999Z,25.23
2023-01-23T23:23:57.194Z,26.00
2023-01-23T23:26:25.032Z,23.85
2023-01-23T23:28:52.034Z,24.63
2023-01-23T23:31:18.991Z,23.57
2023-01-23T23:33:46.053Z,23.50
2023-01-23T23:36:12.827Z,20.03
2023-01-23T23:38:39.573Z,21.10
2023-01-23T23:41:14.016Z,20.17
2023-01-23T23:43:41.637Z,26.27
2023-01-23T23:46:09.959Z,21.17
2023-01-23T23:48:38.220Z,23.47
2023-01-23T23:51:08.646Z,19.73
2023-01-23T23:53:36.055Z,24.97
2023-01-23T23:56:03.959Z,20.40
2023-01-23T23:58:30.857Z,23.67
